Terminal Aerodrome Forecast
Issued by NWS

Home | Current Version | Previous Version | Text Only | Print | Product List | Glossary On
Versions: 1 2 3 4 5 6 7 8 9 10 11 12 13 14 15
538
FTUS46 KEKA 240521
TAFUKI
TAF
KUKI 240521Z 2406/2506 00000KT P6SM SKC
     FM241600 VRB04KT P6SM SKC
     FM242100 32006KT P6SM SKC
     FM250300 00000KT P6SM SKC=

USA.gov is the U.S. government's official web portal to all federal, state and local government web resources and services.